sensor_id;sensor_type;location;lat;lon;timestamp;P1;durP1;ratioP1;P2;durP2;ratioP2
78402;SDS011;67687;43.508;1.504;2023-09-19T00:02:04;5.00;;;1.50;;
78402;SDS011;67687;43.508;1.504;2023-09-19T00:04:34;7.82;;;1.65;;
78402;SDS011;67687;43.508;1.504;2023-09-19T00:07:04;7.20;;;1.58;;
78402;SDS011;67687;43.508;1.504;2023-09-19T00:09:31;7.47;;;1.80;;
78402;SDS011;67687;43.508;1.504;2023-09-19T00:12:03;6.95;;;1.63;;
78402;SDS011;67687;43.508;1.504;2023-09-19T00:14:31;6.95;;;1.75;;
78402;SDS011;67687;43.508;1.504;2023-09-19T00:16:59;5.22;;;1.40;;
78402;SDS011;67687;43.508;1.504;2023-09-19T00:19:31;4.95;;;1.60;;
78402;SDS011;67687;43.508;1.504;2023-09-19T00:21:59;4.83;;;1.50;;
78402;SDS011;67687;43.508;1.504;2023-09-19T00:24:26;7.20;;;1.65;;
78402;SDS011;67687;43.508;1.504;2023-09-19T00:26:53;5.00;;;1.63;;
78402;SDS011;67687;43.508;1.504;2023-09-19T00:29:20;7.38;;;1.80;;
78402;SDS011;67687;43.508;1.504;2023-09-19T00:31:48;6.05;;;1.65;;
78402;SDS011;67687;43.508;1.504;2023-09-19T00:34:15;6.60;;;1.50;;
78402;SDS011;67687;43.508;1.504;2023-09-19T00:36:42;7.20;;;1.58;;
78402;SDS011;67687;43.508;1.504;2023-09-19T00:39:10;5.22;;;1.40;;
78402;SDS011;67687;43.508;1.504;2023-09-19T00:41:37;4.38;;;1.60;;
78402;SDS011;67687;43.508;1.504;2023-09-19T00:44:05;5.60;;;1.63;;
78402;SDS011;67687;43.508;1.504;2023-09-19T00:46:33;6.97;;;1.70;;
78402;SDS011;67687;43.508;1.504;2023-09-19T00:49:00;6.22;;;2.00;;
78402;SDS011;67687;43.508;1.504;2023-09-19T00:51:27;5.80;;;1.45;;
78402;SDS011;67687;43.508;1.504;2023-09-19T00:53:54;6.78;;;1.45;;
78402;SDS011;67687;43.508;1.504;2023-09-19T00:56:23;5.25;;;1.50;;
78402;SDS011;67687;43.508;1.504;2023-09-19T00:58:49;6.50;;;1.67;;
78402;SDS011;67687;43.508;1.504;2023-09-19T01:01:16;5.90;;;1.38;;
78402;SDS011;67687;43.508;1.504;2023-09-19T01:03:43;6.38;;;1.27;;
78402;SDS011;67687;43.508;1.504;2023-09-19T01:06:10;5.90;;;1.67;;
78402;SDS011;67687;43.508;1.504;2023-09-19T01:08:37;5.47;;;1.70;;
78402;SDS011;67687;43.508;1.504;2023-09-19T01:11:06;6.97;;;1.60;;
78402;SDS011;67687;43.508;1.504;2023-09-19T01:13:43;6.25;;;1.88;;
78402;SDS011;67687;43.508;1.504;2023-09-19T01:16:15;6.75;;;1.70;;
78402;SDS011;67687;43.508;1.504;2023-09-19T01:18:49;9.40;;;1.70;;
78402;SDS011;67687;43.508;1.504;2023-09-19T01:21:21;4.97;;;1.33;;
78402;SDS011;67687;43.508;1.504;2023-09-19T01:26:58;6.45;;;1.58;;
78402;SDS011;67687;43.508;1.504;2023-09-19T01:29:37;5.10;;;1.42;;
78402;SDS011;67687;43.508;1.504;2023-09-19T01:32:06;6.40;;;1.48;;
78402;SDS011;67687;43.508;1.504;2023-09-19T01:34:45;8.45;;;2.00;;
78402;SDS011;67687;43.508;1.504;2023-09-19T01:37:13;4.70;;;1.60;;
78402;SDS011;67687;43.508;1.504;2023-09-19T01:39:44;7.47;;;1.60;;
78402;SDS011;67687;43.508;1.504;2023-09-19T01:42:15;5.18;;;1.40;;
78402;SDS011;67687;43.508;1.504;2023-09-19T01:44:49;6.28;;;1.70;;
78402;SDS011;67687;43.508;1.504;2023-09-19T01:47:26;5.60;;;1.77;;
78402;SDS011;67687;43.508;1.504;2023-09-19T01:49:55;4.50;;;1.53;;
78402;SDS011;67687;43.508;1.504;2023-09-19T01:52:30;4.57;;;1.45;;
78402;SDS011;67687;43.508;1.504;2023-09-19T01:55:01;7.10;;;1.55;;
78402;SDS011;67687;43.508;1.504;2023-09-19T01:57:32;5.00;;;1.40;;
78402;SDS011;67687;43.508;1.504;2023-09-19T02:00:03;4.20;;;1.35;;
78402;SDS011;67687;43.508;1.504;2023-09-19T02:02:36;6.20;;;1.57;;
78402;SDS011;67687;43.508;1.504;2023-09-19T02:05:03;4.60;;;1.20;;
78402;SDS011;67687;43.508;1.504;2023-09-19T02:07:31;5.05;;;1.67;;
78402;SDS011;67687;43.508;1.504;2023-09-19T02:09:58;7.75;;;1.67;;
78402;SDS011;67687;43.508;1.504;2023-09-19T02:12:25;6.18;;;1.40;;
78402;SDS011;67687;43.508;1.504;2023-09-19T02:14:52;5.50;;;1.40;;
78402;SDS011;67687;43.508;1.504;2023-09-19T02:17:19;6.70;;;1.58;;
78402;SDS011;67687;43.508;1.504;2023-09-19T02:19:47;7.78;;;1.52;;
78402;SDS011;67687;43.508;1.504;2023-09-19T02:22:14;6.72;;;1.38;;
78402;SDS011;67687;43.508;1.504;2023-09-19T02:24:41;6.22;;;1.42;;
78402;SDS011;67687;43.508;1.504;2023-09-19T02:27:08;5.40;;;1.40;;
78402;SDS011;67687;43.508;1.504;2023-09-19T02:29:37;6.13;;;1.50;;
78402;SDS011;67687;43.508;1.504;2023-09-19T02:32:04;6.35;;;1.40;;
78402;SDS011;67687;43.508;1.504;2023-09-19T02:34:31;7.00;;;1.50;;
78402;SDS011;67687;43.508;1.504;2023-09-19T02:37:03;4.40;;;1.50;;
78402;SDS011;67687;43.508;1.504;2023-09-19T02:39:30;6.97;;;1.50;;
78402;SDS011;67687;43.508;1.504;2023-09-19T02:41:57;5.40;;;1.45;;
78402;SDS011;67687;43.508;1.504;2023-09-19T02:44:24;5.97;;;1.60;;
78402;SDS011;67687;43.508;1.504;2023-09-19T02:46:51;7.32;;;1.70;;
78402;SDS011;67687;43.508;1.504;2023-09-19T02:49:17;6.88;;;1.60;;
78402;SDS011;67687;43.508;1.504;2023-09-19T02:51:44;5.63;;;1.47;;
78402;SDS011;67687;43.508;1.504;2023-09-19T02:54:14;6.00;;;1.60;;
78402;SDS011;67687;43.508;1.504;2023-09-19T02:56:41;6.55;;;1.50;;
78402;SDS011;67687;43.508;1.504;2023-09-19T02:59:08;5.65;;;1.50;;
78402;SDS011;67687;43.508;1.504;2023-09-19T03:01:35;6.55;;;1.90;;
78402;SDS011;67687;43.508;1.504;2023-09-19T03:04:02;5.60;;;1.43;;
78402;SDS011;67687;43.508;1.504;2023-09-19T03:06:31;5.15;;;1.48;;
78402;SDS011;67687;43.508;1.504;2023-09-19T03:08:58;4.63;;;1.63;;
78402;SDS011;67687;43.508;1.504;2023-09-19T03:11:26;4.50;;;1.55;;
78402;SDS011;67687;43.508;1.504;2023-09-19T03:13:53;6.45;;;1.40;;
78402;SDS011;67687;43.508;1.504;2023-09-19T03:16:20;3.30;;;1.30;;
78402;SDS011;67687;43.508;1.504;2023-09-19T03:18:48;7.30;;;1.58;;
78402;SDS011;67687;43.508;1.504;2023-09-19T03:21:14;8.18;;;1.85;;
78402;SDS011;67687;43.508;1.504;2023-09-19T03:23:42;6.50;;;1.70;;
78402;SDS011;67687;43.508;1.504;2023-09-19T03:26:10;4.65;;;1.50;;
78402;SDS011;67687;43.508;1.504;2023-09-19T03:28:39;6.23;;;1.47;;
78402;SDS011;67687;43.508;1.504;2023-09-19T03:31:07;5.90;;;1.75;;
78402;SDS011;67687;43.508;1.504;2023-09-19T03:33:34;5.50;;;1.60;;
78402;SDS011;67687;43.508;1.504;2023-09-19T03:36:01;7.97;;;1.65;;
78402;SDS011;67687;43.508;1.504;2023-09-19T03:38:30;4.93;;;1.63;;
78402;SDS011;67687;43.508;1.504;2023-09-19T03:40:57;5.67;;;1.40;;
78402;SDS011;67687;43.508;1.504;2023-09-19T03:43:24;7.03;;;1.73;;
78402;SDS011;67687;43.508;1.504;2023-09-19T03:45:52;6.82;;;1.45;;
78402;SDS011;67687;43.508;1.504;2023-09-19T03:48:19;7.78;;;1.60;;
78402;SDS011;67687;43.508;1.504;2023-09-19T03:50:46;7.30;;;1.63;;
78402;SDS011;67687;43.508;1.504;2023-09-19T03:53:13;5.10;;;1.47;;
78402;SDS011;67687;43.508;1.504;2023-09-19T03:55:40;6.60;;;1.45;;
78402;SDS011;67687;43.508;1.504;2023-09-19T03:58:07;6.10;;;1.50;;
78402;SDS011;67687;43.508;1.504;2023-09-19T04:00:33;6.18;;;1.92;;
78402;SDS011;67687;43.508;1.504;2023-09-19T04:03:02;5.43;;;1.33;;
78402;SDS011;67687;43.508;1.504;2023-09-19T04:05:31;5.03;;;1.33;;
78402;SDS011;67687;43.508;1.504;2023-09-19T04:07:58;5.18;;;1.60;;
78402;SDS011;67687;43.508;1.504;2023-09-19T04:10:25;6.32;;;1.70;;
78402;SDS011;67687;43.508;1.504;2023-09-19T04:12:53;6.63;;;1.60;;
78402;SDS011;67687;43.508;1.504;2023-09-19T04:15:20;7.30;;;1.70;;
78402;SDS011;67687;43.508;1.504;2023-09-19T04:17:48;5.63;;;1.43;;
78402;SDS011;67687;43.508;1.504;2023-09-19T04:20:16;6.10;;;1.40;;
78402;SDS011;67687;43.508;1.504;2023-09-19T04:22:44;5.88;;;1.50;;
78402;SDS011;67687;43.508;1.504;2023-09-19T04:25:11;6.80;;;1.35;;
78402;SDS011;67687;43.508;1.504;2023-09-19T04:27:38;6.00;;;1.60;;
78402;SDS011;67687;43.508;1.504;2023-09-19T04:30:07;8.17;;;2.10;;
78402;SDS011;67687;43.508;1.504;2023-09-19T04:32:36;5.95;;;1.67;;
78402;SDS011;67687;43.508;1.504;2023-09-19T04:35:05;5.30;;;1.70;;
78402;SDS011;67687;43.508;1.504;2023-09-19T04:37:35;7.50;;;1.63;;
78402;SDS011;67687;43.508;1.504;2023-09-19T04:40:03;6.30;;;1.70;;
78402;SDS011;67687;43.508;1.504;2023-09-19T04:42:32;5.53;;;1.53;;
78402;SDS011;67687;43.508;1.504;2023-09-19T04:44:59;5.97;;;1.73;;
78402;SDS011;67687;43.508;1.504;2023-09-19T04:47:26;6.65;;;1.70;;
78402;SDS011;67687;43.508;1.504;2023-09-19T04:49:52;5.18;;;1.60;;
78402;SDS011;67687;43.508;1.504;2023-09-19T04:52:19;7.05;;;1.80;;
78402;SDS011;67687;43.508;1.504;2023-09-19T04:54:47;6.03;;;1.40;;
78402;SDS011;67687;43.508;1.504;2023-09-19T04:57:14;5.25;;;1.50;;
78402;SDS011;67687;43.508;1.504;2023-09-19T04:59:41;6.95;;;1.67;;
78402;SDS011;67687;43.508;1.504;2023-09-19T05:02:08;8.50;;;1.73;;
78402;SDS011;67687;43.508;1.504;2023-09-19T05:04:35;7.05;;;1.55;;
78402;SDS011;67687;43.508;1.504;2023-09-19T05:07:02;5.33;;;1.50;;
78402;SDS011;67687;43.508;1.504;2023-09-19T05:09:29;5.32;;;1.65;;
78402;SDS011;67687;43.508;1.504;2023-09-19T05:12:00;6.63;;;1.70;;
78402;SDS011;67687;43.508;1.504;2023-09-19T05:14:27;5.35;;;1.67;;
78402;SDS011;67687;43.508;1.504;2023-09-19T05:16:54;5.88;;;1.77;;
78402;SDS011;67687;43.508;1.504;2023-09-19T05:19:20;6.83;;;1.67;;
78402;SDS011;67687;43.508;1.504;2023-09-19T05:21:47;7.07;;;1.60;;
78402;SDS011;67687;43.508;1.504;2023-09-19T05:24:14;6.93;;;1.60;;
78402;SDS011;67687;43.508;1.504;2023-09-19T05:26:42;4.88;;;1.58;;
78402;SDS011;67687;43.508;1.504;2023-09-19T05:29:10;6.70;;;1.63;;
78402;SDS011;67687;43.508;1.504;2023-09-19T05:31:38;6.47;;;1.60;;
78402;SDS011;67687;43.508;1.504;2023-09-19T05:34:06;5.93;;;1.50;;
78402;SDS011;67687;43.508;1.504;2023-09-19T05:36:32;5.03;;;1.40;;
78402;SDS011;67687;43.508;1.504;2023-09-19T05:38:59;5.50;;;1.50;;
78402;SDS011;67687;43.508;1.504;2023-09-19T05:41:26;6.40;;;1.80;;
78402;SDS011;67687;43.508;1.504;2023-09-19T05:43:53;9.43;;;1.63;;
78402;SDS011;67687;43.508;1.504;2023-09-19T05:46:21;6.25;;;1.95;;
78402;SDS011;67687;43.508;1.504;2023-09-19T05:48:48;7.97;;;1.80;;
78402;SDS011;67687;43.508;1.504;2023-09-19T05:51:15;6.28;;;1.98;;
78402;SDS011;67687;43.508;1.504;2023-09-19T05:53:43;9.52;;;1.98;;
78402;SDS011;67687;43.508;1.504;2023-09-19T05:56:13;5.07;;;1.57;;
78402;SDS011;67687;43.508;1.504;2023-09-19T05:58:40;5.15;;;1.80;;
78402;SDS011;67687;43.508;1.504;2023-09-19T06:01:09;6.40;;;1.40;;
78402;SDS011;67687;43.508;1.504;2023-09-19T06:03:37;5.85;;;1.70;;
78402;SDS011;67687;43.508;1.504;2023-09-19T06:06:04;6.45;;;1.65;;
78402;SDS011;67687;43.508;1.504;2023-09-19T06:08:31;5.13;;;1.60;;
78402;SDS011;67687;43.508;1.504;2023-09-19T06:10:58;5.18;;;1.40;;
78402;SDS011;67687;43.508;1.504;2023-09-19T06:13:27;7.63;;;1.73;;
78402;SDS011;67687;43.508;1.504;2023-09-19T06:15:54;4.07;;;1.65;;
78402;SDS011;67687;43.508;1.504;2023-09-19T06:18:22;7.60;;;1.70;;
78402;SDS011;67687;43.508;1.504;2023-09-19T06:20:52;5.30;;;1.90;;
78402;SDS011;67687;43.508;1.504;2023-09-19T06:23:20;6.57;;;1.85;;
78402;SDS011;67687;43.508;1.504;2023-09-19T06:25:48;8.93;;;1.83;;
78402;SDS011;67687;43.508;1.504;2023-09-19T06:28:14;7.85;;;1.77;;
78402;SDS011;67687;43.508;1.504;2023-09-19T06:30:45;5.38;;;1.73;;
78402;SDS011;67687;43.508;1.504;2023-09-19T06:33:12;5.90;;;1.93;;
78402;SDS011;67687;43.508;1.504;2023-09-19T06:35:39;7.07;;;1.80;;
78402;SDS011;67687;43.508;1.504;2023-09-19T06:38:08;7.35;;;1.63;;
78402;SDS011;67687;43.508;1.504;2023-09-19T06:40:38;7.25;;;1.65;;
78402;SDS011;67687;43.508;1.504;2023-09-19T06:43:05;5.90;;;1.70;;
78402;SDS011;67687;43.508;1.504;2023-09-19T06:45:32;5.63;;;1.80;;
78402;SDS011;67687;43.508;1.504;2023-09-19T06:47:59;5.43;;;1.70;;
78402;SDS011;67687;43.508;1.504;2023-09-19T06:50:27;6.10;;;1.80;;
78402;SDS011;67687;43.508;1.504;2023-09-19T06:52:58;6.90;;;1.85;;
78402;SDS011;67687;43.508;1.504;2023-09-19T06:55:27;6.35;;;1.70;;
78402;SDS011;67687;43.508;1.504;2023-09-19T06:57:56;6.37;;;1.70;;
78402;SDS011;67687;43.508;1.504;2023-09-19T07:00:23;5.40;;;1.40;;
78402;SDS011;67687;43.508;1.504;2023-09-19T07:02:56;5.82;;;1.65;;
78402;SDS011;67687;43.508;1.504;2023-09-19T07:05:26;4.95;;;1.50;;
78402;SDS011;67687;43.508;1.504;2023-09-19T07:07:54;4.72;;;1.45;;
78402;SDS011;67687;43.508;1.504;2023-09-19T07:10:21;3.83;;;1.30;;
78402;SDS011;67687;43.508;1.504;2023-09-19T07:12:57;5.13;;;1.50;;
78402;SDS011;67687;43.508;1.504;2023-09-19T07:15:24;4.63;;;1.70;;
78402;SDS011;67687;43.508;1.504;2023-09-19T07:17:51;5.65;;;1.35;;
78402;SDS011;67687;43.508;1.504;2023-09-19T07:20:19;8.05;;;1.70;;
78402;SDS011;67687;43.508;1.504;2023-09-19T07:22:46;7.80;;;1.50;;
78402;SDS011;67687;43.508;1.504;2023-09-19T07:25:13;5.43;;;1.65;;
78402;SDS011;67687;43.508;1.504;2023-09-19T07:27:40;6.13;;;1.50;;
78402;SDS011;67687;43.508;1.504;2023-09-19T07:30:09;9.05;;;1.77;;
78402;SDS011;67687;43.508;1.504;2023-09-19T07:32:37;6.20;;;1.58;;
78402;SDS011;67687;43.508;1.504;2023-09-19T07:35:06;5.10;;;1.50;;
78402;SDS011;67687;43.508;1.504;2023-09-19T07:37:33;6.10;;;1.63;;
78402;SDS011;67687;43.508;1.504;2023-09-19T07:40:01;8.85;;;1.58;;
78402;SDS011;67687;43.508;1.504;2023-09-19T07:42:32;6.43;;;1.40;;
78402;SDS011;67687;43.508;1.504;2023-09-19T07:45:00;4.28;;;1.30;;
78402;SDS011;67687;43.508;1.504;2023-09-19T07:47:28;7.27;;;1.60;;
78402;SDS011;67687;43.508;1.504;2023-09-19T07:49:55;5.40;;;1.60;;
78402;SDS011;67687;43.508;1.504;2023-09-19T07:52:22;4.75;;;1.80;;
78402;SDS011;67687;43.508;1.504;2023-09-19T07:54:49;7.82;;;1.50;;
78402;SDS011;67687;43.508;1.504;2023-09-19T07:57:16;7.13;;;1.52;;
78402;SDS011;67687;43.508;1.504;2023-09-19T07:59:42;8.00;;;1.50;;
78402;SDS011;67687;43.508;1.504;2023-09-19T08:02:09;6.15;;;1.45;;
78402;SDS011;67687;43.508;1.504;2023-09-19T08:04:42;7.45;;;1.40;;
78402;SDS011;67687;43.508;1.504;2023-09-19T08:07:11;6.13;;;1.52;;
78402;SDS011;67687;43.508;1.504;2023-09-19T08:09:38;6.80;;;1.48;;
78402;SDS011;67687;43.508;1.504;2023-09-19T08:12:05;5.83;;;1.33;;
78402;SDS011;67687;43.508;1.504;2023-09-19T08:14:33;6.57;;;1.38;;
78402;SDS011;67687;43.508;1.504;2023-09-19T08:17:00;7.38;;;1.60;;
78402;SDS011;67687;43.508;1.504;2023-09-19T08:19:27;6.63;;;1.40;;
78402;SDS011;67687;43.508;1.504;2023-09-19T08:21:56;6.60;;;1.67;;
78402;SDS011;67687;43.508;1.504;2023-09-19T08:24:24;6.97;;;1.33;;
78402;SDS011;67687;43.508;1.504;2023-09-19T08:26:52;5.25;;;1.30;;
78402;SDS011;67687;43.508;1.504;2023-09-19T08:29:19;7.30;;;1.67;;
78402;SDS011;67687;43.508;1.504;2023-09-19T08:31:46;8.50;;;1.50;;
78402;SDS011;67687;43.508;1.504;2023-09-19T08:34:14;6.90;;;1.70;;
78402;SDS011;67687;43.508;1.504;2023-09-19T08:36:41;6.57;;;1.40;;
78402;SDS011;67687;43.508;1.504;2023-09-19T08:39:11;5.63;;;1.48;;
78402;SDS011;67687;43.508;1.504;2023-09-19T08:41:38;6.60;;;1.40;;
78402;SDS011;67687;43.508;1.504;2023-09-19T08:44:05;7.95;;;1.45;;
78402;SDS011;67687;43.508;1.504;2023-09-19T08:46:33;6.28;;;1.58;;
78402;SDS011;67687;43.508;1.504;2023-09-19T08:49:02;6.00;;;1.50;;
78402;SDS011;67687;43.508;1.504;2023-09-19T08:51:32;4.80;;;1.58;;
78402;SDS011;67687;43.508;1.504;2023-09-19T08:54:03;8.98;;;1.80;;
78402;SDS011;67687;43.508;1.504;2023-09-19T08:56:33;6.43;;;1.23;;
78402;SDS011;67687;43.508;1.504;2023-09-19T08:59:02;6.65;;;1.63;;
78402;SDS011;67687;43.508;1.504;2023-09-19T09:01:31;9.10;;;1.40;;
78402;SDS011;67687;43.508;1.504;2023-09-19T09:03:58;7.15;;;1.60;;
78402;SDS011;67687;43.508;1.504;2023-09-19T09:06:26;6.00;;;1.23;;
78402;SDS011;67687;43.508;1.504;2023-09-19T09:08:53;7.13;;;1.40;;
78402;SDS011;67687;43.508;1.504;2023-09-19T09:11:20;8.82;;;1.38;;
78402;SDS011;67687;43.508;1.504;2023-09-19T09:13:51;8.47;;;1.20;;
78402;SDS011;67687;43.508;1.504;2023-09-19T09:16:18;6.05;;;1.58;;
78402;SDS011;67687;43.508;1.504;2023-09-19T09:18:44;7.22;;;1.80;;
78402;SDS011;67687;43.508;1.504;2023-09-19T09:21:12;5.97;;;1.30;;
78402;SDS011;67687;43.508;1.504;2023-09-19T09:23:39;5.47;;;1.33;;
78402;SDS011;67687;43.508;1.504;2023-09-19T09:26:06;5.97;;;1.23;;
78402;SDS011;67687;43.508;1.504;2023-09-19T09:28:34;6.78;;;1.42;;
78402;SDS011;67687;43.508;1.504;2023-09-19T09:31:05;5.75;;;1.27;;
78402;SDS011;67687;43.508;1.504;2023-09-19T09:33:34;4.88;;;1.42;;
78402;SDS011;67687;43.508;1.504;2023-09-19T09:36:01;5.45;;;1.30;;
78402;SDS011;67687;43.508;1.504;2023-09-19T09:38:42;5.90;;;1.20;;
78402;SDS011;67687;43.508;1.504;2023-09-19T09:41:10;4.63;;;1.30;;
78402;SDS011;67687;43.508;1.504;2023-09-19T09:43:40;7.63;;;1.67;;
78402;SDS011;67687;43.508;1.504;2023-09-19T09:46:13;9.93;;;1.48;;
78402;SDS011;67687;43.508;1.504;2023-09-19T09:48:58;8.10;;;1.20;;
78402;SDS011;67687;43.508;1.504;2023-09-19T09:51:41;7.07;;;1.37;;
78402;SDS011;67687;43.508;1.504;2023-09-19T09:54:11;8.25;;;2.05;;
78402;SDS011;67687;43.508;1.504;2023-09-19T09:59:48;6.43;;;1.73;;
78402;SDS011;67687;43.508;1.504;2023-09-19T10:02:20;6.53;;;1.35;;
78402;SDS011;67687;43.508;1.504;2023-09-19T10:04:53;4.83;;;1.10;;
78402;SDS011;67687;43.508;1.504;2023-09-19T10:07:34;6.72;;;1.38;;
78402;SDS011;67687;43.508;1.504;2023-09-19T10:10:06;4.18;;;1.30;;
78402;SDS011;67687;43.508;1.504;2023-09-19T10:12:44;8.57;;;1.35;;
78402;SDS011;67687;43.508;1.504;2023-09-19T10:15:13;9.73;;;1.40;;
78402;SDS011;67687;43.508;1.504;2023-09-19T10:17:44;5.83;;;1.30;;
78402;SDS011;67687;43.508;1.504;2023-09-19T10:20:14;3.88;;;1.20;;
78402;SDS011;67687;43.508;1.504;2023-09-19T10:23:00;6.15;;;1.33;;
78402;SDS011;67687;43.508;1.504;2023-09-19T10:25:28;6.72;;;1.50;;
78402;SDS011;67687;43.508;1.504;2023-09-19T10:27:56;8.07;;;1.40;;
78402;SDS011;67687;43.508;1.504;2023-09-19T10:30:25;5.67;;;1.37;;
78402;SDS011;67687;43.508;1.504;2023-09-19T10:32:57;5.03;;;1.20;;
78402;SDS011;67687;43.508;1.504;2023-09-19T10:35:27;5.75;;;1.30;;
78402;SDS011;67687;43.508;1.504;2023-09-19T10:37:54;4.95;;;1.02;;
78402;SDS011;67687;43.508;1.504;2023-09-19T10:40:24;3.95;;;1.10;;
78402;SDS011;67687;43.508;1.504;2023-09-19T10:42:58;6.30;;;1.00;;
78402;SDS011;67687;43.508;1.504;2023-09-19T10:45:30;5.35;;;1.38;;
78402;SDS011;67687;43.508;1.504;2023-09-19T10:47:59;6.43;;;1.40;;
78402;SDS011;67687;43.508;1.504;2023-09-19T10:50:27;4.32;;;1.25;;
78402;SDS011;67687;43.508;1.504;2023-09-19T10:52:59;4.13;;;1.02;;
78402;SDS011;67687;43.508;1.504;2023-09-19T10:55:30;4.47;;;0.97;;
78402;SDS011;67687;43.508;1.504;2023-09-19T10:57:58;6.05;;;1.38;;
78402;SDS011;67687;43.508;1.504;2023-09-19T11:00:52;4.88;;;1.13;;
78402;SDS011;67687;43.508;1.504;2023-09-19T11:03:22;4.30;;;1.00;;
78402;SDS011;67687;43.508;1.504;2023-09-19T11:06:02;4.80;;;1.17;;
78402;SDS011;67687;43.508;1.504;2023-09-19T11:08:57;4.57;;;1.10;;
78402;SDS011;67687;43.508;1.504;2023-09-19T11:11:39;4.65;;;1.00;;
78402;SDS011;67687;43.508;1.504;2023-09-19T11:14:15;4.07;;;0.98;;
78402;SDS011;67687;43.508;1.504;2023-09-19T11:20:21;4.00;;;0.90;;
78402;SDS011;67687;43.508;1.504;2023-09-19T11:23:19;4.33;;;0.73;;
78402;SDS011;67687;43.508;1.504;2023-09-19T11:25:51;5.45;;;1.17;;
78402;SDS011;67687;43.508;1.504;2023-09-19T11:28:34;6.55;;;1.02;;
78402;SDS011;67687;43.508;1.504;2023-09-19T11:40:34;6.55;;;1.20;;
78402;SDS011;67687;43.508;1.504;2023-09-19T11:43:00;5.82;;;1.40;;
78402;SDS011;67687;43.508;1.504;2023-09-19T11:46:06;5.30;;;0.95;;
78402;SDS011;67687;43.508;1.504;2023-09-19T11:48:33;4.15;;;1.05;;
78402;SDS011;67687;43.508;1.504;2023-09-19T11:51:08;4.97;;;1.23;;
78402;SDS011;67687;43.508;1.504;2023-09-19T11:53:44;4.15;;;1.00;;
78402;SDS011;67687;43.508;1.504;2023-09-19T11:56:14;6.15;;;1.10;;
78402;SDS011;67687;43.508;1.504;2023-09-19T11:58:43;3.60;;;1.05;;
78402;SDS011;67687;43.508;1.504;2023-09-19T12:01:11;5.05;;;1.20;;
78402;SDS011;67687;43.508;1.504;2023-09-19T12:03:40;4.00;;;0.93;;
78402;SDS011;67687;43.508;1.504;2023-09-19T12:06:10;4.93;;;1.17;;
78402;SDS011;67687;43.508;1.504;2023-09-19T12:08:40;5.10;;;1.20;;
78402;SDS011;67687;43.508;1.504;2023-09-19T12:11:11;5.95;;;1.10;;
78402;SDS011;67687;43.508;1.504;2023-09-19T12:13:45;5.28;;;1.13;;
78402;SDS011;67687;43.508;1.504;2023-09-19T12:16:14;5.03;;;1.27;;
78402;SDS011;67687;43.508;1.504;2023-09-19T12:18:41;5.57;;;1.23;;
78402;SDS011;67687;43.508;1.504;2023-09-19T12:26:43;3.42;;;0.90;;
78402;SDS011;67687;43.508;1.504;2023-09-19T12:29:12;3.73;;;1.10;;
78402;SDS011;67687;43.508;1.504;2023-09-19T12:31:52;4.72;;;1.00;;
78402;SDS011;67687;43.508;1.504;2023-09-19T12:34:23;3.65;;;0.95;;
78402;SDS011;67687;43.508;1.504;2023-09-19T12:37:05;3.95;;;1.45;;
78402;SDS011;67687;43.508;1.504;2023-09-19T12:39:36;4.90;;;1.20;;
78402;SDS011;67687;43.508;1.504;2023-09-19T12:42:08;3.80;;;1.00;;
78402;SDS011;67687;43.508;1.504;2023-09-19T12:44:36;3.90;;;1.40;;
78402;SDS011;67687;43.508;1.504;2023-09-19T12:47:13;3.00;;;1.08;;
78402;SDS011;67687;43.508;1.504;2023-09-19T12:52:35;5.00;;;1.20;;
78402;SDS011;67687;43.508;1.504;2023-09-19T12:55:02;3.23;;;1.00;;
78402;SDS011;67687;43.508;1.504;2023-09-19T12:57:33;2.75;;;0.90;;
78402;SDS011;67687;43.508;1.504;2023-09-19T13:00:00;3.70;;;1.00;;
78402;SDS011;67687;43.508;1.504;2023-09-19T13:02:27;3.83;;;1.40;;
78402;SDS011;67687;43.508;1.504;2023-09-19T13:04:54;3.00;;;0.90;;
78402;SDS011;67687;43.508;1.504;2023-09-19T13:07:40;4.33;;;1.30;;
78402;SDS011;67687;43.508;1.504;2023-09-19T13:10:11;4.03;;;1.10;;
78402;SDS011;67687;43.508;1.504;2023-09-19T13:12:42;3.95;;;1.10;;
78402;SDS011;67687;43.508;1.504;2023-09-19T13:15:13;3.63;;;1.00;;
78402;SDS011;67687;43.508;1.504;2023-09-19T13:17:44;3.60;;;1.10;;
78402;SDS011;67687;43.508;1.504;2023-09-19T13:20:20;3.27;;;1.10;;
78402;SDS011;67687;43.508;1.504;2023-09-19T13:22:52;4.10;;;1.10;;
78402;SDS011;67687;43.508;1.504;2023-09-19T13:25:23;3.13;;;1.02;;
78402;SDS011;67687;43.508;1.504;2023-09-19T13:27:53;4.47;;;1.08;;
78402;SDS011;67687;43.508;1.504;2023-09-19T13:30:21;5.65;;;1.30;;
78402;SDS011;67687;43.508;1.504;2023-09-19T13:32:50;3.40;;;1.00;;
78402;SDS011;67687;43.508;1.504;2023-09-19T13:35:18;3.75;;;1.10;;
78402;SDS011;67687;43.508;1.504;2023-09-19T13:37:47;4.07;;;1.20;;
78402;SDS011;67687;43.508;1.504;2023-09-19T13:40:16;3.67;;;1.10;;
78402;SDS011;67687;43.508;1.504;2023-09-19T13:42:45;2.92;;;1.10;;
78402;SDS011;67687;43.508;1.504;2023-09-19T13:45:13;4.37;;;1.00;;
78402;SDS011;67687;43.508;1.504;2023-09-19T13:47:42;3.83;;;1.02;;
78402;SDS011;67687;43.508;1.504;2023-09-19T13:50:09;3.53;;;1.08;;
78402;SDS011;67687;43.508;1.504;2023-09-19T13:52:36;3.75;;;0.80;;
78402;SDS011;67687;43.508;1.504;2023-09-19T13:55:03;3.55;;;0.90;;
78402;SDS011;67687;43.508;1.504;2023-09-19T13:57:31;4.90;;;1.20;;
78402;SDS011;67687;43.508;1.504;2023-09-19T13:59:58;2.70;;;0.80;;
78402;SDS011;67687;43.508;1.504;2023-09-19T14:02:27;4.57;;;1.15;;
78402;SDS011;67687;43.508;1.504;2023-09-19T14:04:53;4.25;;;1.10;;
78402;SDS011;67687;43.508;1.504;2023-09-19T14:07:20;3.95;;;1.00;;
78402;SDS011;67687;43.508;1.504;2023-09-19T14:09:47;4.73;;;0.97;;
78402;SDS011;67687;43.508;1.504;2023-09-19T14:12:14;3.38;;;1.10;;
78402;SDS011;67687;43.508;1.504;2023-09-19T14:14:41;4.15;;;1.00;;
78402;SDS011;67687;43.508;1.504;2023-09-19T14:17:10;3.03;;;0.85;;
78402;SDS011;67687;43.508;1.504;2023-09-19T14:19:38;3.55;;;0.90;;
78402;SDS011;67687;43.508;1.504;2023-09-19T14:22:08;2.90;;;0.90;;
78402;SDS011;67687;43.508;1.504;2023-09-19T14:24:36;3.85;;;1.00;;
78402;SDS011;67687;43.508;1.504;2023-09-19T14:27:03;3.40;;;0.75;;
78402;SDS011;67687;43.508;1.504;2023-09-19T14:29:31;3.58;;;1.02;;
78402;SDS011;67687;43.508;1.504;2023-09-19T14:31:58;3.22;;;1.00;;
78402;SDS011;67687;43.508;1.504;2023-09-19T14:34:25;3.63;;;0.77;;
78402;SDS011;67687;43.508;1.504;2023-09-19T14:36:54;3.00;;;0.80;;
78402;SDS011;67687;43.508;1.504;2023-09-19T14:39:21;3.88;;;1.05;;
78402;SDS011;67687;43.508;1.504;2023-09-19T14:41:48;2.83;;;0.80;;
78402;SDS011;67687;43.508;1.504;2023-09-19T14:44:15;4.22;;;1.30;;
78402;SDS011;67687;43.508;1.504;2023-09-19T14:46:42;4.20;;;0.87;;
78402;SDS011;67687;43.508;1.504;2023-09-19T14:49:10;3.55;;;0.90;;
78402;SDS011;67687;43.508;1.504;2023-09-19T14:51:37;4.70;;;0.90;;
78402;SDS011;67687;43.508;1.504;2023-09-19T14:54:06;5.68;;;1.00;;
78402;SDS011;67687;43.508;1.504;2023-09-19T14:56:33;3.63;;;1.10;;
78402;SDS011;67687;43.508;1.504;2023-09-19T14:59:00;4.73;;;0.97;;
78402;SDS011;67687;43.508;1.504;2023-09-19T15:01:27;5.25;;;0.93;;
78402;SDS011;67687;43.508;1.504;2023-09-19T15:03:54;4.75;;;1.30;;
78402;SDS011;67687;43.508;1.504;2023-09-19T15:06:21;3.13;;;1.00;;
78402;SDS011;67687;43.508;1.504;2023-09-19T15:08:48;6.25;;;1.30;;
78402;SDS011;67687;43.508;1.504;2023-09-19T15:11:17;3.47;;;1.00;;
78402;SDS011;67687;43.508;1.504;2023-09-19T15:13:45;3.05;;;0.90;;
78402;SDS011;67687;43.508;1.504;2023-09-19T15:16:12;3.20;;;0.90;;
78402;SDS011;67687;43.508;1.504;2023-09-19T15:18:40;4.07;;;1.00;;
78402;SDS011;67687;43.508;1.504;2023-09-19T15:21:08;3.03;;;1.00;;
78402;SDS011;67687;43.508;1.504;2023-09-19T15:23:36;3.07;;;1.03;;
78402;SDS011;67687;43.508;1.504;2023-09-19T15:26:03;3.53;;;1.10;;
78402;SDS011;67687;43.508;1.504;2023-09-19T15:28:32;3.38;;;1.00;;